首页
METAR-TAF:

METAR-TAF

机场 :

匹兹堡 / West Mifflin, 宾夕法尼亚州, 美国

纬度: 40-21-17N, 经度: 079-55-18W, 海拔: 382米

当前天气观测

该预报发布于12分钟前的04:53 UTC
风速8节,风向西南
温度 -2°C
湿度 86%
气压 1017 hPa
能見度: 11.3公里
阴天层高于1500英尺

METAR: KAGC 190453Z 23008KT 7SM OVC015 M02/M04 A3002 RMK AO2 SNB15E46 SLP183 P0000 T10171044 400001017

时间: 00:05 (05:05 UTC)

预报

该预报发布于5小时和44分钟前的23:21 UTC
预报有效从19日的 00点(UTC)到 19日的 24点(UTC)
风速6节,风向西转西南
能見度: 10公里
阴天层高于2000英尺
小阵雪
从 19日的 1300点(UTC)
风速6节,风向西南
能見度: 10公里
多云层高于2000英尺
从 19日的 1500点(UTC)
风速8节,风向西南,有时为17节阵风
能見度: 10公里
多云层高于2000英尺
从 19日的 1900点(UTC)
风速9节,风向西转西南,有时为19节阵风
能見度: 10公里
多云层高于3500英尺

TAF: KAGC 182321Z 1900/1924 25006KT P6SM -SHSN OVC020 FM191300 23006KT P6SM BKN020 FM191500 23008G17KT P6SM BKN020 FM191900 25009G19KT P6SM BKN035

超过4000个机场的气象观测和天气预报(METAR&TAF报告)。

可查询的气象台以黄色和红色小点在地图上表示。

将鼠标移到小点上方,可查看气象台名称。

然后点击查看天气观测和预报。

如需切换地图:点击带黑十字的绿色按钮放大地图;点击带横线的绿色按钮缩小地图;或者点击绿色箭头查看邻近地区的地图。


METAR-TAF: